• pl
  • eng

Awiacja
TAF FT 10:30 19.10.2018
  • WIND
  • SIGNIFICANT EURO
  • SIGNIFICANT
  • SIGMET
  • AIRMET
  • TAF FC
  • TAF FT
  • METAR GG30
  • METAR GG00


TAF AMD EPBY 190735Z 1907/2006 36004KT 8000 BKN012
BECMG 1908/1910 SCT020
PROB40 2001/2006 3000 BR=

TAF EPGD 190530Z 1906/2006 34004KT CAVOK=

TAF EPKK 190830Z 1909/2009 25010KT 2000 BR OVC003
BECMG 1909/1911 4000 BR BKN008
TEMPO 1911/1915 6000 BKN013
BECMG 1915/1918 VRB02KT
TEMPO 1918/2006 2000 BR=

TAF AMD EPKT 190732Z 1907/2006 27004KT 0200 FG OVC001
BECMG 1908/1911 34010KT 4000 BR BKN005
BECMG 1911/1913 6000 BKN013
BECMG 1918/1920 VRB02KT 2000 BR BKN006 BKN012=

TAF AMD EPLL 190728Z 1907/2006 33004KT 0700 FG OVC002
TEMPO 1907/1909 0200 FG BKN001
BECMG 1909/1911 6000 BKN010
BECMG 1911/1913 BKN020
BECMG 1920/1923 2500 BR BKN010
PROB40 1922/2006 0600 DZ FG BKN002=

TAF AMD EPMO 190633Z 1906/2006 33006KT 0600 FG OVC002
TEMPO 1906/1908 0100 FG OVC001
BECMG 1908/1910 4000 BR BKN010
BECMG 1910/1912 8000 BKN020
BECMG 1921/1924 2500 BR BKN010
PROB40 1923/2006 0600 FG BKN002=

TAF EPPO 190530Z 1906/2006 VRB02KT 1500 BR BKN002 OVC015
PROB40 1906/1908 0500 FG OVC001
BECMG 1908/1910 4000 BR BKN006 BKN015
TEMPO 1911/1917 7000 BKN020
PROB30 TEMPO 1920/2003 0700 FG BKN003
BECMG 2003/2006 30010KT 9999 SCT020=

TAF EPRZ 190530Z 1906/2006 24006KT 4000 BR NSC
TEMPO 1906/1907 1200 BR
BECMG 1907/1909 31010KT
BECMG 1915/1918 BKN012
BECMG 1921/1924 BKN006 BKN012=

TAF AMD EPSC 190737Z 1907/2006 30005KT 0300 FG BKN001
BECMG 1908/1910 9999 SCT020=

TAF EPWA 190830Z 1909/2009 34008KT 2000 BR BKN006
TEMPO 1909/1911 0800 FG OVC001
BECMG 1911/1913 7000 BKN015
BECMG 1921/1924 3000 BR BKN012
PROB40 2000/2007 0800 FG BKN003
BECMG 2007/2009 8000 SCT020=

TAF EPWR 190830Z 1909/2009 33005KT 1200 BR OVC002
BECMG 1909/1912 4000 BR BKN006
BECMG 1912/1914 7000 BKN018
BECMG 1916/1919 2000 BR
PROB40 1921/2005 0500 FG BKN003
BECMG 2006/2009 8000 BKN017=
Awiacja.imgw.pl jest pogodowym serwisem informacyjnym
Instytutu Meteorologii i Gospodarki Wodnej Państwowego Instytutu Badawczego.
Copyright IMGW PIB 2009-2011© Wszelkie prawa zastrzeżone.